Hlavní strana
METAR-TAF:

METAR-TAF

Letiště :

Mezinárodní letiště Davida Budovatele

Kutaisi, Gruzie

zeměpisná šířka: 42-10-35N, zeměpisná délka: 042-28-57E, výška: 68 m

Aktuální stav počasí

Zpráva byla vytvořena před 26 minutami, v 14:00 UTC
vítr z různých směrů 3 kt
Teplota 8°C
Vlhkost vzduchu 93%
Tlak 1022 hPa
Viditelnost 10 km a více
Polojasno ve výšce 1600 ft
Oblačno až skoro zataženo ve výšce 4100 ft

METAR: UGKO 251400Z VRB03KT 9999 SCT016 BKN041 08/07 Q1022 R07/29//50 NOSIG

Čas: 18:26 (14:26 UTC)

Předpověď počasí

Zpráva byla vytvořena před 3 hodinami a 26 minutami, v 11:00 UTC
Předpověď platná od 25 v 12 UTC do 26 v 12 UTC
vítr z různých směrů 2 kt
Viditelnost: 8000 m
Polojasno ve výšce 2300 ft
Zataženo ve výšce 4000 ft
slabý déšť
Dočasný
od 26 v 00 UTC do 26 v 05 UTC
Viditelnost: 3000 m
Oblačno až skoro zataženo ve výšce 1000 ft
déšť, kouřmo

TAF: UGKO 251100Z 2512/2612 VRB02KT 8000 -RA SCT023 OVC040 TX09/2611Z TN03/2603Z TEMPO 2600/2605 3000 RA BR BKN010

Stav a předpovědi počasí z více než 4 000 letišť (zprávy METAR a TAF).

Červené a žluté tečky na mapě představují dostupné meteorologické stanice.

Když kurzor umístíte na tečku, zobrazí se název stanice.

Pak kliknutím zobrazíte stav a předpověď počasí.

Chcete-li změnit mapu, kliknutím na zelené tlačítko se znaménkem +mapu přiblížíte, kliknutím na zelené tlačítko se znaménkem – mapu oddálíte a kliknutím na zelené šipky přejdete na sousední mapy.


METAR-TAF: